Time;durP1;ratioP1;P1;durP2;ratioP2;P2;SDS_P1;SDS_P2;PMS_P1;PMS_P2;Temp;Humidity;BMP_temperature;BMP_pressure;BME280_temperature;BME280_humidity;BME280_pressure;Samples;Min_cycle;Max_cycle;Signal;HPM_P1;HPM_P2
2022/03/09 00:02:07;;;;;;;3.80;3.40;;;;;;;18.87;34.61;101231.69;5005516;28;20022;-43
2022/03/09 00:04:32;;;;;;;5.80;3.28;;;;;;;18.87;34.57;101239.59;5003939;28;20037;-46
2022/03/09 00:06:58;;;;;;;5.70;3.40;;;;;;;18.87;34.53;101244.06;4995780;28;20049;-47
2022/03/09 00:09:24;;;;;;;3.85;3.45;;;;;;;18.87;34.60;101244.06;5000361;28;20124;-50
2022/03/09 00:11:49;;;;;;;4.35;3.30;;;;;;;18.86;34.52;101247.72;5003721;28;20124;-45
2022/03/09 00:14:15;;;;;;;6.63;3.45;;;;;;;18.85;34.46;101249.53;4994844;28;20069;-47
2022/03/09 00:16:40;;;;;;;5.30;3.38;;;;;;;18.85;34.46;101256.63;4998310;28;20037;-48
2022/03/09 00:19:05;;;;;;;4.07;2.75;;;;;;;18.83;34.48;101254.16;5004543;28;20395;-47
2022/03/09 00:21:31;;;;;;;6.43;3.58;;;;;;;18.82;34.45;101252.53;4989602;28;20049;-44
2022/03/09 00:23:56;;;;;;;4.93;3.28;;;;;;;18.81;34.29;101245.59;5004497;28;20036;-47
2022/03/09 00:26:22;;;;;;;7.03;3.55;;;;;;;18.82;34.39;101249.88;5005743;28;20040;-44
2022/03/09 00:28:47;;;;;;;3.42;2.80;;;;;;;18.80;34.34;101243.97;5003017;28;20433;-47
2022/03/09 00:31:13;;;;;;;4.07;3.33;;;;;;;18.80;34.29;101249.25;5001625;28;20026;-46
2022/03/09 00:33:38;;;;;;;4.18;2.75;;;;;;;18.79;34.14;101247.59;4995234;28;20443;-49
2022/03/09 00:36:04;;;;;;;3.60;2.83;;;;;;;18.79;34.11;101241.50;4989667;28;20097;-51
2022/03/09 00:38:30;;;;;;;3.58;2.83;;;;;;;18.79;34.02;101247.59;5001455;28;20046;-52
2022/03/09 00:40:55;;;;;;;3.72;3.42;;;;;;;18.79;34.09;101249.44;5004067;28;20087;-47
2022/03/09 00:43:21;;;;;;;6.05;3.40;;;;;;;18.79;34.03;101244.16;5005711;28;20087;-50
2022/03/09 00:45:46;;;;;;;3.80;2.90;;;;;;;18.78;34.03;101240.69;4997134;28;20080;-47
2022/03/09 00:48:12;;;;;;;4.97;3.85;;;;;;;18.78;34.02;101245.97;4998531;28;20036;-50
2022/03/09 00:50:38;;;;;;;3.72;3.22;;;;;;;18.77;33.94;101249.59;5002569;28;20025;-49
2022/03/09 00:53:03;;;;;;;4.70;2.65;;;;;;;18.76;34.10;101255.88;4994485;28;20088;-43
2022/03/09 00:55:29;;;;;;;5.88;3.47;;;;;;;18.75;33.97;101251.59;5000696;28;20506;-43
2022/03/09 00:57:54;;;;;;;4.97;3.22;;;;;;;18.74;33.88;101244.69;4999020;28;20033;-44
2022/03/09 01:00:20;;;;;;;4.47;3.00;;;;;;;18.75;33.88;101250.78;5005232;28;20041;-51
2022/03/09 01:02:46;;;;;;;4.53;2.80;;;;;;;18.74;33.80;101255.25;5007227;28;20493;-50
2022/03/09 01:05:14;;;;;;;4.18;2.75;;;;;;;18.73;33.83;101248.31;5002885;28;20188;-44
2022/03/09 01:07:40;;;;;;;4.35;2.97;;;;;;;18.71;33.85;101249.50;5005729;28;20041;-45
2022/03/09 01:10:06;;;;;;;4.57;3.13;;;;;;;18.72;33.97;101251.13;5005575;28;20445;-45
2022/03/09 01:12:32;;;;;;;4.55;3.72;;;;;;;18.71;33.68;101244.22;5000033;28;20062;-50
2022/03/09 01:14:58;;;;;;;3.20;2.70;;;;;;;18.70;33.70;101242.56;5001959;28;20045;-47
2022/03/09 01:17:24;;;;;;;4.65;3.05;;;;;;;18.68;33.71;101250.66;4988171;28;20037;-55
2022/03/09 01:19:49;;;;;;;3.25;2.90;;;;;;;18.68;33.62;101253.31;5004337;28;20172;-54
2022/03/09 01:22:15;;;;;;;3.75;3.25;;;;;;;18.67;33.47;101243.75;5001194;28;20113;-48
2022/03/09 01:24:40;;;;;;;4.70;3.28;;;;;;;18.66;33.57;101238.66;5002266;28;20624;-44
2022/03/09 01:27:06;;;;;;;4.43;2.97;;;;;;;18.66;33.50;101246.56;4993069;28;20454;-50
2022/03/09 01:29:31;;;;;;;3.72;2.80;;;;;;;18.64;33.39;101238.81;5002184;28;20505;-49
2022/03/09 01:31:57;;;;;;;3.25;2.60;;;;;;;18.63;33.42;101229.25;4995558;28;20026;-57
2022/03/09 01:34:22;;;;;;;5.30;3.00;;;;;;;18.62;33.29;101227.63;4987240;28;20042;-48
2022/03/09 01:36:48;;;;;;;5.57;2.70;;;;;;;18.62;33.39;101224.16;5003886;28;20121;-53
2022/03/09 01:39:13;;;;;;;3.53;3.00;;;;;;;18.61;33.27;101225.97;5005251;28;20385;-51
2022/03/09 01:41:39;;;;;;;2.97;2.47;;;;;;;18.60;33.14;101226.97;4996162;28;20030;-51
2022/03/09 01:44:08;;;;;;;3.35;3.05;;;;;;;18.59;33.18;101225.31;4990637;28;20120;-51
2022/03/09 01:46:34;;;;;;;3.80;2.90;;;;;;;18.59;33.21;101227.94;5001614;28;20029;-53
2022/03/09 01:48:59;;;;;;;3.15;2.85;;;;;;;18.57;33.21;101222.03;5004760;28;20397;-46
2022/03/09 01:51:25;;;;;;;3.25;2.95;;;;;;;18.56;33.09;101226.47;4996279;28;20035;-55
2022/03/09 01:53:51;;;;;;;4.55;3.10;;;;;;;18.55;33.20;101219.56;4993786;28;20124;-51
2022/03/09 01:56:16;;;;;;;3.58;2.85;;;;;;;18.54;33.25;101206.53;5004979;28;20521;-50
2022/03/09 01:58:42;;;;;;;3.45;2.67;;;;;;;18.53;33.29;101210.19;4996820;28;20456;-45
2022/03/09 02:01:08;;;;;;;3.28;2.42;;;;;;;18.52;33.32;101208.53;4994106;28;20402;-54
2022/03/09 02:03:35;;;;;;;4.95;2.58;;;;;;;18.51;33.36;101202.44;4998384;28;20112;-57
2022/03/09 02:06:00;;;;;;;3.97;2.28;;;;;;;18.51;33.30;101204.25;5003801;28;20034;-47
2022/03/09 02:13:37;;;;;;;3.55;2.50;;;;;;;18.48;33.16;101205.44;4917088;22;20051;-47
2022/03/09 02:16:03;;;;;;;3.95;2.83;;;;;;;18.47;33.04;101201.16;4987379;28;20113;-44
2022/03/09 02:18:29;;;;;;;5.30;2.17;;;;;;;18.46;33.05;101204.78;4987334;28;20105;-50
2022/03/09 02:20:58;;;;;;;3.80;2.15;;;;;;;18.45;33.13;101203.16;4987233;28;20038;-51
2022/03/09 02:23:24;;;;;;;2.20;2.00;;;;;;;18.46;33.18;101211.88;4987468;28;20053;-49
2022/03/09 02:25:49;;;;;;;3.22;1.92;;;;;;;18.45;33.27;101208.44;4986899;28;20501;-48
2022/03/09 02:28:15;;;;;;;3.63;2.58;;;;;;;18.44;33.11;101206.78;4987945;28;20033;-48
2022/03/09 02:30:40;;;;;;;3.00;2.67;;;;;;;18.43;33.06;101204.34;4990931;28;20038;-51
2022/03/09 02:33:06;;;;;;;2.75;2.10;;;;;;;18.43;33.10;101209.63;4990795;28;20050;-53
2022/03/09 02:35:31;;;;;;;3.45;2.17;;;;;;;18.42;33.15;101213.28;4990048;28;20378;-49
2022/03/09 02:37:57;;;;;;;2.97;2.60;;;;;;;18.42;32.92;101213.28;4990462;28;20632;-48
2022/03/09 02:40:22;;;;;;;3.35;2.15;;;;;;;18.42;32.96;101210.63;4990575;28;20071;-48
2022/03/09 02:42:48;;;;;;;3.10;2.20;;;;;;;18.41;33.06;101211.63;4989153;28;20461;-54
2022/03/09 02:45:14;;;;;;;2.80;2.15;;;;;;;18.40;32.90;101210.81;4990570;28;20030;-47
2022/03/09 02:47:43;;;;;;;2.78;2.15;;;;;;;18.39;32.90;101218.91;4989217;28;20026;-50
2022/03/09 02:50:09;;;;;;;3.55;2.15;;;;;;;18.38;32.89;101210.16;4990163;28;20117;-46
2022/03/09 02:52:39;;;;;;;3.17;2.60;;;;;;;18.37;32.94;101213.81;4990400;28;20485;-53
2022/03/09 02:55:06;;;;;;;2.60;2.22;;;;;;;18.37;32.92;101216.44;4990217;28;20181;-47
2022/03/09 02:57:32;;;;;;;2.75;2.40;;;;;;;18.37;32.85;101220.91;4990298;28;20037;-52
2022/03/09 02:59:57;;;;;;;2.90;2.20;;;;;;;18.37;32.85;101220.91;4990309;28;20274;-45
2022/03/09 03:02:23;;;;;;;2.53;2.03;;;;;;;18.36;32.76;101219.25;4989799;28;20027;-52
2022/03/09 03:04:48;;;;;;;2.80;2.08;;;;;;;18.35;32.78;101228.16;4990183;28;20043;-51
2022/03/09 03:07:13;;;;;;;2.85;2.53;;;;;;;18.35;32.88;101228.97;4990117;28;20029;-48
2022/03/09 03:09:39;;;;;;;2.30;2.10;;;;;;;18.34;32.77;101231.78;4988463;28;20038;-50
2022/03/09 03:12:04;;;;;;;2.90;1.92;;;;;;;18.33;32.73;101230.16;4989716;28;20061;-51
2022/03/09 03:14:30;;;;;;;3.03;2.20;;;;;;;18.33;32.81;101235.44;4990149;28;20042;-46
2022/03/09 03:16:55;;;;;;;3.15;2.22;;;;;;;18.33;32.83;101230.16;4988801;28;20038;-45
2022/03/09 03:19:21;;;;;;;2.67;1.83;;;;;;;18.33;32.84;101235.44;4990320;28;20022;-48
2022/03/09 03:21:46;;;;;;;2.88;2.35;;;;;;;18.32;32.83;101245.16;4990203;28;20034;-44
2022/03/09 03:24:12;;;;;;;4.57;1.77;;;;;;;18.31;32.85;101245.34;4989924;28;20061;-50
2022/03/09 03:26:37;;;;;;;3.08;2.28;;;;;;;18.31;32.93;101254.06;4989998;28;20363;-48
2022/03/09 03:29:03;;;;;;;3.30;2.40;;;;;;;18.31;32.90;101263.81;4989945;28;20137;-48
2022/03/09 03:31:31;;;;;;;3.65;2.30;;;;;;;18.30;32.90;101267.44;4989394;28;20045;-48
2022/03/09 03:33:58;;;;;;;2.42;1.83;;;;;;;18.29;32.89;101260.53;4989590;28;20077;-46
2022/03/09 03:36:23;;;;;;;3.10;1.77;;;;;;;18.29;33.03;101269.25;4989852;28;20038;-55
2022/03/09 03:38:49;;;;;;;2.47;1.75;;;;;;;18.27;32.87;101270.44;5003921;28;20371;-42
2022/03/09 03:41:14;;;;;;;2.28;1.77;;;;;;;18.28;33.03;101269.44;4988945;28;20042;-46
2022/03/09 03:43:40;;;;;;;4.95;2.15;;;;;;;18.28;32.98;101269.44;4989535;28;20026;-47
2022/03/09 03:46:05;;;;;;;3.05;2.00;;;;;;;18.27;33.04;101267.78;4989335;28;20672;-48
2022/03/09 03:48:31;;;;;;;3.17;2.30;;;;;;;18.25;33.11;101257.41;4989113;28;20246;-46
2022/03/09 03:50:56;;;;;;;2.40;1.98;;;;;;;18.25;33.00;101260.03;4989280;28;20117;-44
2022/03/09 03:53:21;;;;;;;2.40;2.13;;;;;;;18.24;33.06;101268.97;4989074;28;20108;-44
2022/03/09 03:55:47;;;;;;;2.45;1.90;;;;;;;18.23;33.09;101268.13;4989181;28;20437;-44
2022/03/09 03:58:13;;;;;;;3.40;1.88;;;;;;;18.21;33.00;101270.13;4989126;28;20030;-43
2022/03/09 04:00:38;;;;;;;4.80;1.85;;;;;;;18.21;32.94;101271.94;4989290;28;20049;-45
2022/03/09 04:03:04;;;;;;;3.55;1.90;;;;;;;18.20;32.92;101272.94;4988635;28;20049;-46
2022/03/09 04:05:30;;;;;;;2.83;1.95;;;;;;;18.19;32.96;101282.66;4989269;28;20078;-46
2022/03/09 04:07:56;;;;;;;3.72;1.90;;;;;;;18.18;32.94;101274.91;4988985;28;20486;-43
2022/03/09 04:10:21;;;;;;;3.65;1.80;;;;;;;18.18;32.94;101286.28;4989190;28;20026;-45
2022/03/09 04:12:47;;;;;;;2.50;2.20;;;;;;;18.17;32.88;101270.66;4988729;28;20445;-49
2022/03/09 04:15:12;;;;;;;3.22;2.33;;;;;;;18.16;32.88;101266.38;4988837;28;20030;-44
2022/03/09 04:17:39;;;;;;;3.35;1.92;;;;;;;18.15;32.79;101264.72;4988389;28;20040;-42
2022/03/09 04:20:05;;;;;;;2.42;1.90;;;;;;;18.14;32.77;101269.19;4988694;28;20205;-48
2022/03/09 04:22:31;;;;;;;3.90;2.70;;;;;;;18.13;32.84;101272.81;4988612;28;20193;-45
2022/03/09 04:24:56;;;;;;;2.35;1.70;;;;;;;18.14;32.74;101274.44;4988635;28;20034;-48
2022/03/09 04:27:21;;;;;;;2.92;2.50;;;;;;;18.14;32.82;101278.91;4988547;28;20089;-47
2022/03/09 04:29:47;;;;;;;3.00;2.08;;;;;;;18.12;32.73;101276.44;4988615;28;20072;-45
2022/03/09 04:32:12;;;;;;;2.40;2.03;;;;;;;18.11;32.79;101272.16;4988473;28;20026;-42
2022/03/09 04:34:38;;;;;;;2.47;1.70;;;;;;;18.11;32.63;101277.44;4988692;28;20121;-43
2022/03/09 04:37:04;;;;;;;2.33;1.98;;;;;;;18.11;32.81;101272.16;5003200;28;20428;-47
2022/03/09 04:39:29;;;;;;;3.00;2.15;;;;;;;18.10;32.75;101278.44;4988671;28;20442;-45
2022/03/09 04:41:54;;;;;;;2.22;1.60;;;;;;;18.09;32.75;101276.78;4988230;28;20026;-51
2022/03/09 04:44:20;;;;;;;2.67;2.08;;;;;;;18.10;32.77;101280.25;4987706;28;20037;-45
2022/03/09 04:46:45;;;;;;;2.65;2.08;;;;;;;18.08;32.73;101275.13;4988095;28;20391;-44
2022/03/09 04:49:11;;;;;;;2.88;1.98;;;;;;;18.08;32.75;101274.31;4988626;28;20385;-45
2022/03/09 04:51:36;;;;;;;2.08;1.88;;;;;;;18.07;32.76;101268.22;4985911;28;20482;-42
2022/03/09 04:54:02;;;;;;;2.15;1.75;;;;;;;18.07;32.69;101267.41;4987476;28;20031;-46
2022/03/09 04:56:28;;;;;;;3.67;2.22;;;;;;;18.05;32.68;101269.38;4988243;28;20177;-43
2022/03/09 04:58:53;;;;;;;2.40;1.90;;;;;;;18.04;32.57;101267.75;4987866;28;20528;-46
2022/03/09 05:01:18;;;;;;;2.72;1.85;;;;;;;18.02;32.61;101278.47;4987992;28;20029;-45
2022/03/09 05:03:44;;;;;;;3.30;2.33;;;;;;;18.02;32.60;101275.00;4987651;28;20041;-50
2022/03/09 05:06:09;;;;;;;2.38;1.77;;;;;;;18.00;32.57;101267.28;4987244;28;20508;-51
2022/03/09 05:08:35;;;;;;;2.42;1.98;;;;;;;18.00;32.56;101266.44;4988152;28;20215;-47
2022/03/09 05:11:00;;;;;;;3.42;2.20;;;;;;;18.00;32.59;101256.72;4987870;28;20022;-48
2022/03/09 05:13:26;;;;;;;2.42;1.60;;;;;;;18.00;32.58;101263.81;4987331;28;20034;-48
2022/03/09 05:15:51;;;;;;;2.85;1.70;;;;;;;17.98;32.59;101265.81;4987905;28;20329;-44
2022/03/09 05:18:17;;;;;;;2.88;1.77;;;;;;;18.00;32.65;101266.44;4987692;28;20361;-44
2022/03/09 05:20:42;;;;;;;2.05;1.70;;;;;;;18.01;32.77;101266.28;4987001;28;20462;-49
2022/03/09 05:23:07;;;;;;;4.32;3.53;;;;;;;18.06;34.43;101261.31;4987643;28;20355;-44
2022/03/09 05:25:33;;;;;;;3.78;1.90;;;;;;;18.10;35.10;101262.59;5002253;28;20557;-47
2022/03/09 05:28:00;;;;;;;6.65;2.67;;;;;;;18.09;34.98;101258.31;4987279;28;20034;-47
2022/03/09 05:30:25;;;;;;;5.45;2.53;;;;;;;18.07;34.67;101259.50;4987331;28;20030;-41
2022/03/09 05:32:50;;;;;;;4.22;2.10;;;;;;;18.08;34.53;101261.97;4987006;28;20104;-47
2022/03/09 05:35:16;;;;;;;26.92;2.67;;;;;;;18.09;34.52;101260.16;4985432;28;20081;-47
2022/03/09 05:37:43;;;;;;;11.30;1.95;;;;;;;18.08;34.42;101264.59;4987298;28;20018;-49
2022/03/09 05:40:10;;;;;;;2.83;1.42;;;;;;;18.07;34.41;101262.94;4986282;28;20402;-50
2022/03/09 05:42:36;;;;;;;4.82;2.35;;;;;;;18.06;34.56;101260.50;4987599;28;20030;-58
2022/03/09 05:45:03;;;;;;;8.43;1.95;;;;;;;18.05;34.40;101269.38;4986692;28;20045;-44
2022/03/09 05:47:28;;;;;;;5.03;2.58;;;;;;;18.03;34.36;101272.19;4986447;28;20034;-44
2022/03/09 05:49:53;;;;;;;7.55;2.03;;;;;;;18.02;34.47;101277.66;4986538;28;20040;-50
2022/03/09 05:52:19;;;;;;;3.75;2.15;;;;;;;18.02;34.47;101281.09;4985729;28;20038;-46
2022/03/09 05:54:45;;;;;;;4.13;2.22;;;;;;;18.01;34.54;101281.28;4986810;28;20108;-50
2022/03/09 05:57:21;;;;;;;4.00;2.08;;;;;;;17.99;34.45;101286.72;4986950;28;20026;-43
2022/03/09 05:59:47;;;;;;;5.30;1.52;;;;;;;17.97;34.52;101290.53;4986245;28;20038;-50
2022/03/09 06:02:13;;;;;;;4.50;1.42;;;;;;;17.96;34.53;101284.44;4986526;28;20030;-46
2022/03/09 06:04:38;;;;;;;5.78;2.10;;;;;;;17.96;34.61;101287.06;4991108;28;20038;-51
2022/03/09 06:07:05;;;;;;;5.63;1.65;;;;;;;17.95;34.57;101289.91;4990484;28;20049;-48
2022/03/09 06:09:30;;;;;;;4.55;1.92;;;;;;;17.94;34.47;101297.00;4991319;28;20347;-42
2022/03/09 06:11:56;;;;;;;3.75;2.08;;;;;;;17.94;34.25;101293.53;4990225;28;20057;-45
2022/03/09 06:14:21;;;;;;;3.17;2.28;;;;;;;17.95;33.92;101296.00;4991160;28;20064;-48
2022/03/09 06:16:47;;;;;;;3.03;1.95;;;;;;;17.98;34.10;101308.81;4991052;28;20479;-48
2022/03/09 06:19:14;;;;;;;3.17;1.67;;;;;;;18.02;33.62;101306.66;4991238;28;20041;-45
2022/03/09 06:21:40;;;;;;;3.60;1.60;;;;;;;18.07;33.56;101310.41;4991048;28;20054;-51
2022/03/09 06:24:06;;;;;;;4.63;1.90;;;;;;;18.11;33.45;101303.81;4990921;28;20561;-50
2022/03/09 06:26:31;;;;;;;4.25;1.85;;;;;;;18.16;33.34;101308.56;4991081;28;20125;-44
2022/03/09 06:28:57;;;;;;;3.17;1.48;;;;;;;18.18;33.35;101317.94;4990741;28;20541;-51
2022/03/09 06:31:22;;;;;;;2.85;1.90;;;;;;;18.22;33.18;101326.34;4990962;28;20353;-45
2022/03/09 06:33:48;;;;;;;3.40;1.58;;;;;;;18.26;33.18;101321.53;4990966;28;20057;-57
2022/03/09 06:36:13;;;;;;;2.58;1.58;;;;;;;18.31;33.17;101320.03;4990709;28;20038;-49
2022/03/09 06:38:38;;;;;;;3.88;1.50;;;;;;;18.35;33.17;101323.94;4989276;28;20560;-53
2022/03/09 06:41:04;;;;;;;2.92;2.15;;;;;;;18.40;33.07;101321.63;4990869;28;20401;-51
2022/03/09 06:43:29;;;;;;;4.40;1.15;;;;;;;18.46;33.04;101325.34;4990744;28;20041;-53
2022/03/09 06:45:55;;;;;;;2.30;1.75;;;;;;;18.51;32.91;101328.28;4990545;28;20398;-51
2022/03/09 06:48:20;;;;;;;4.45;1.60;;;;;;;18.56;32.96;101320.66;4990474;28;20396;-51
2022/03/09 06:50:46;;;;;;;2.92;1.80;;;;;;;18.59;32.89;101330.88;4990692;28;20050;-44
2022/03/09 06:53:11;;;;;;;3.67;1.85;;;;;;;18.64;32.85;101333.00;4990613;28;20088;-45
2022/03/09 06:55:37;;;;;;;2.50;1.92;;;;;;;18.68;32.85;101326.38;4989828;28;20116;-46
2022/03/09 06:58:03;;;;;;;6.78;1.63;;;;;;;18.74;32.83;101329.16;4990417;28;20058;-50
2022/03/09 07:00:28;;;;;;;2.88;1.85;;;;;;;18.83;33.14;101327.28;4990224;28;20209;-53
2022/03/09 07:02:56;;;;;;;5.82;2.17;;;;;;;18.91;33.37;101329.81;4989765;28;20045;-45
2022/03/09 07:05:21;;;;;;;7.53;2.20;;;;;;;18.94;33.65;101326.81;4990295;28;20440;-48
2022/03/09 07:07:47;;;;;;;5.65;2.10;;;;;;;18.94;33.83;101324.19;4990375;28;20118;-47
2022/03/09 07:10:13;;;;;;;5.65;1.70;;;;;;;18.95;34.02;101330.28;4990377;28;20442;-56
2022/03/09 07:12:40;;;;;;;12.25;1.70;;;;;;;18.95;34.16;101319.72;4989655;28;20050;-42
2022/03/09 07:15:06;;;;;;;5.80;2.28;;;;;;;18.90;34.29;101326.34;4987064;28;20046;-44
2022/03/09 07:17:31;;;;;;;5.93;1.90;;;;;;;18.92;34.29;101330.63;4990161;28;20030;-49
2022/03/09 07:19:56;;;;;;;5.95;1.73;;;;;;;18.92;34.25;101323.53;4991717;28;20042;-47
2022/03/09 07:22:22;;;;;;;6.03;1.58;;;;;;;18.95;34.30;101319.72;4987408;28;20030;-47
2022/03/09 07:24:48;;;;;;;2.78;2.00;;;;;;;18.99;34.06;101321.00;4989809;28;20179;-44
2022/03/09 07:27:13;;;;;;;3.40;2.03;;;;;;;19.03;34.22;101328.41;4989056;28;20056;-47
2022/03/09 07:29:39;;;;;;;5.13;1.77;;;;;;;19.10;34.42;101325.88;4988192;28;20089;-47
2022/03/09 07:32:05;;;;;;;9.77;2.05;;;;;;;19.14;34.48;101325.31;4988996;28;20042;-46
2022/03/09 07:34:31;;;;;;;5.82;1.92;;;;;;;19.17;34.61;101326.78;4989629;28;20463;-46
2022/03/09 07:36:59;;;;;;;5.35;1.77;;;;;;;19.20;34.09;101329.91;4989770;28;20030;-48
2022/03/09 07:39:26;;;;;;;2.83;1.88;;;;;;;19.23;34.45;101326.91;4989031;28;20331;-43
2022/03/09 07:41:54;;;;;;;6.57;1.75;;;;;;;19.28;34.28;101333.47;4990775;28;20034;-46
2022/03/09 07:44:19;;;;;;;5.72;1.42;;;;;;;19.29;34.14;101330.66;4989499;28;20042;-48
2022/03/09 07:46:45;;;;;;;4.40;1.90;;;;;;;19.32;33.92;101332.94;4987997;28;20108;-44
2022/03/09 07:49:11;;;;;;;3.72;1.88;;;;;;;19.35;33.96;101334.38;4987092;28;20045;-46
2022/03/09 07:51:36;;;;;;;4.45;1.77;;;;;;;19.36;33.82;101333.38;4987503;28;20042;-44
2022/03/09 07:54:02;;;;;;;4.05;2.10;;;;;;;19.38;33.88;101340.09;4989460;28;20030;-46
2022/03/09 07:56:27;;;;;;;2.38;1.45;;;;;;;19.39;33.57;101335.63;4989508;28;20026;-45
2022/03/09 07:58:52;;;;;;;7.10;1.63;;;;;;;19.37;33.62;101332.38;4989218;28;20026;-45
2022/03/09 08:01:18;;;;;;;3.58;1.83;;;;;;;19.38;33.52;101331.34;4989142;28;20034;-48
2022/03/09 08:03:44;;;;;;;3.38;1.50;;;;;;;19.37;33.57;101333.22;4996966;28;20034;-51
2022/03/09 08:06:09;;;;;;;5.78;2.28;;;;;;;19.37;33.48;101330.56;4988777;28;20026;-46
2022/03/09 08:08:35;;;;;;;6.30;1.35;;;;;;;19.35;33.23;101327.28;4989037;28;20532;-44
2022/03/09 08:11:00;;;;;;;5.90;2.03;;;;;;;19.33;33.11;101334.56;4989187;28;20037;-48
2022/03/09 08:13:26;;;;;;;6.43;2.97;;;;;;;19.32;32.69;101327.63;4988303;28;20042;-45
2022/03/09 08:15:51;;;;;;;18.40;2.90;;;;;;;19.33;32.47;101329.28;4988719;28;20046;-46
2022/03/09 08:18:18;;;;;;;8.90;2.67;;;;;;;19.32;32.48;101324.19;5000438;28;20211;-47
2022/03/09 08:20:43;;;;;;;10.82;2.33;;;;;;;19.30;32.25;101324.34;4988910;28;20053;-49
2022/03/09 08:23:09;;;;;;;5.95;2.25;;;;;;;19.31;32.24;101322.53;4984314;28;20743;-47
2022/03/09 08:25:35;;;;;;;9.65;2.78;;;;;;;19.32;32.25;101322.34;4980717;28;20110;-46
2022/03/09 08:28:01;;;;;;;11.40;3.15;;;;;;;19.35;32.34;101323.81;4984388;28;20075;-45
2022/03/09 08:30:28;;;;;;;8.02;2.67;;;;;;;19.38;32.30;101318.97;4986276;28;20026;-46
2022/03/09 08:32:53;;;;;;;25.98;3.47;;;;;;;19.40;32.54;101322.25;4983623;28;20022;-47
2022/03/09 08:35:19;;;;;;;8.45;3.35;;;;;;;19.41;32.38;101308.03;4987607;28;20034;-44
2022/03/09 08:37:44;;;;;;;8.65;2.70;;;;;;;19.41;32.27;101313.31;4986936;28;20428;-43
2022/03/09 08:40:10;;;;;;;6.18;2.63;;;;;;;19.41;32.34;101321.25;4988043;28;20049;-42
2022/03/09 08:42:36;;;;;;;5.75;2.28;;;;;;;19.43;32.16;101321.88;4988031;28;20038;-44
2022/03/09 08:45:01;;;;;;;6.13;2.67;;;;;;;19.43;32.31;101313.97;4985852;28;20029;-46
2022/03/09 08:47:27;;;;;;;4.60;2.80;;;;;;;19.41;32.23;101310.69;4988881;28;20073;-47
2022/03/09 08:49:52;;;;;;;4.60;3.17;;;;;;;19.42;32.16;101308.84;4986304;28;20032;-44
2022/03/09 08:52:18;;;;;;;5.97;2.47;;;;;;;19.42;32.24;101308.84;4986617;28;20474;-46
2022/03/09 08:54:43;;;;;;;5.60;2.67;;;;;;;19.42;32.20;101312.31;4986390;28;20033;-46
2022/03/09 08:57:09;;;;;;;5.53;2.63;;;;;;;19.41;32.25;101317.78;4986291;28;20091;-48
2022/03/09 08:59:34;;;;;;;4.40;2.40;;;;;;;19.40;32.17;101321.41;4986344;28;20033;-46
2022/03/09 09:02:00;;;;;;;3.53;2.60;;;;;;;19.39;32.29;101323.25;4987122;28;20042;-45
2022/03/09 09:04:26;;;;;;;4.07;2.15;;;;;;;19.36;32.23;101321.00;4986780;28;20045;-48
2022/03/09 09:06:52;;;;;;;4.75;2.88;;;;;;;19.34;32.42;101328.28;4987309;28;20038;-45
2022/03/09 09:09:18;;;;;;;4.03;2.83;;;;;;;19.32;32.50;101325.00;4986423;28;20474;-45
2022/03/09 09:11:44;;;;;;;3.75;1.85;;;;;;;19.31;32.47;101320.72;4986565;28;20183;-49
2022/03/09 09:14:10;;;;;;;5.72;2.65;;;;;;;19.30;32.59;101319.06;4986246;28;20103;-45
2022/03/09 09:16:35;;;;;;;7.30;2.45;;;;;;;19.28;32.67;101326.34;4987151;28;20193;-48
2022/03/09 09:19:01;;;;;;;5.88;2.40;;;;;;;19.27;32.62;101329.19;4983768;28;20061;-47
2022/03/09 09:21:26;;;;;;;4.47;2.20;;;;;;;19.27;32.89;101323.91;4983390;28;20046;-44
2022/03/09 09:23:52;;;;;;;2.90;1.95;;;;;;;19.28;33.07;101323.72;4983201;28;20073;-50
2022/03/09 09:26:18;;;;;;;4.05;2.25;;;;;;;19.25;33.25;101325.91;4987321;28;20022;-45
2022/03/09 09:28:44;;;;;;;3.58;1.52;;;;;;;19.24;33.10;101317.16;4983775;28;20043;-51
2022/03/09 09:31:10;;;;;;;7.22;1.98;;;;;;;19.23;33.30;101321.63;4985788;28;20053;-47
2022/03/09 09:33:35;;;;;;;2.28;1.85;;;;;;;19.22;33.26;101314.69;4984508;28;20169;-51
2022/03/09 09:36:01;;;;;;;3.40;1.55;;;;;;;19.20;33.35;101307.94;4984177;28;20034;-44
2022/03/09 09:38:27;;;;;;;5.57;2.28;;;;;;;19.21;33.65;101304.31;4982521;28;20090;-42
2022/03/09 09:40:55;;;;;;;4.50;1.80;;;;;;;19.22;33.81;101306.75;4987110;28;20042;-44
2022/03/09 09:43:21;;;;;;;2.75;1.42;;;;;;;19.23;33.79;101300.47;4985369;28;20038;-41
2022/03/09 09:45:47;;;;;;;3.88;1.80;;;;;;;19.26;33.78;101301.94;4986736;28;20507;-46
2022/03/09 09:48:13;;;;;;;3.50;1.77;;;;;;;19.25;34.08;101302.13;4972454;28;20034;-42
2022/03/09 09:50:40;;;;;;;2.70;1.30;;;;;;;19.23;33.99;101294.38;4987557;28;20113;-43
2022/03/09 09:53:10;;;;;;;2.88;1.40;;;;;;;19.22;34.06;101287.44;4987082;28;20050;-44
2022/03/09 09:55:36;;;;;;;3.15;1.48;;;;;;;19.23;34.02;101302.31;4987704;28;20520;-43
2022/03/09 09:58:03;;;;;;;3.03;1.70;;;;;;;19.22;34.16;101303.31;4986586;28;20054;-41
2022/03/09 10:00:29;;;;;;;2.47;1.60;;;;;;;19.22;34.24;101290.09;4986924;28;20093;-43
2022/03/09 10:02:54;;;;;;;3.85;1.98;;;;;;;19.22;34.35;101287.44;4987133;28;20038;-41
2022/03/09 10:05:20;;;;;;;2.05;1.60;;;;;;;19.21;34.33;101291.91;4987353;28;20037;-44
2022/03/09 10:08:03;;;;;;;1.85;1.38;;;;;;;19.17;34.46;101287.16;4986658;28;20030;-43
2022/03/09 10:11:00;;;;;;;2.83;1.63;;;;;;;19.14;34.52;101283.06;4967679;28;20058;-42
2022/03/09 10:13:32;;;;;;;;;;;;;;;19.05;34.71;101284.16;4967333;28;20136;-42
2022/03/09 10:16:12;;;;;;;1.55;1.10;;;;;;;19.03;34.65;101280.84;4986765;28;19925;-46
2022/03/09 10:18:38;;;;;;;2.35;1.27;;;;;;;19.06;34.73;101283.16;4986916;28;20466;-48
2022/03/09 10:21:09;;;;;;;3.20;1.20;;;;;;;19.03;34.68;101280.84;4987042;28;20041;-42
2022/03/09 10:23:50;;;;;;;4.47;1.52;;;;;;;19.01;34.62;101282.03;4986923;28;20084;-43
2022/03/09 10:26:17;;;;;;;2.67;1.10;;;;;;;19.00;34.73;101278.56;4987140;28;20031;-44
2022/03/09 10:29:04;;;;;;;2.80;1.50;;;;;;;18.98;34.97;101282.41;4986632;28;20048;-48
2022/03/09 10:31:35;;;;;;;2.03;0.90;;;;;;;18.95;34.85;101273.00;4986899;28;20034;-43
2022/03/09 10:34:23;;;;;;;1.38;1.08;;;;;;;18.96;34.87;101276.47;4986768;28;20129;-46
2022/03/09 10:36:56;;;;;;;3.35;1.48;;;;;;;18.94;34.87;101276.66;4986884;28;20034;-43
2022/03/09 10:39:24;;;;;;;2.75;1.30;;;;;;;18.96;34.87;101273.84;4986521;28;20050;-44
2022/03/09 10:41:50;;;;;;;1.52;1.20;;;;;;;18.97;34.91;101264.91;4986404;28;20033;-42
2022/03/09 10:44:16;;;;;;;1.90;1.25;;;;;;;18.95;35.04;101273.00;4986667;28;20049;-43
2022/03/09 10:46:48;;;;;;;2.70;1.33;;;;;;;18.95;34.89;101266.91;4986810;28;20393;-43
2022/03/09 10:49:18;;;;;;;3.63;1.40;;;;;;;18.95;35.03;101261.63;4987767;28;20034;-45
2022/03/09 10:51:50;;;;;;;1.77;1.10;;;;;;;18.93;35.01;101258.34;4990552;28;20035;-43
2022/03/09 10:54:28;;;;;;;4.30;1.27;;;;;;;18.91;35.06;101255.88;4989874;28;20045;-45
2022/03/09 10:57:03;;;;;;;2.47;1.15;;;;;;;18.90;35.10;101255.06;4990021;28;20031;-44
2022/03/09 10:59:29;;;;;;;2.08;1.13;;;;;;;18.90;35.05;101255.06;4990333;28;20129;-45
2022/03/09 11:02:08;;;;;;;2.58;1.10;;;;;;;18.89;35.21;101252.63;4989773;28;20452;-41
2022/03/09 11:04:35;;;;;;;1.95;0.80;;;;;;;18.90;35.08;101260.34;4990138;28;20206;-42
2022/03/09 11:07:01;;;;;;;2.45;1.00;;;;;;;18.90;35.11;101249.00;4990411;28;20038;-43
2022/03/09 11:09:26;;;;;;;1.80;1.35;;;;;;;18.89;35.24;101248.19;4990090;28;20036;-45
2022/03/09 11:11:52;;;;;;;2.03;1.33;;;;;;;18.88;35.25;101245.72;4990027;28;20501;-45
2022/03/09 11:14:20;;;;;;;2.05;1.25;;;;;;;18.87;35.14;101247.53;4989535;28;20042;-43
2022/03/09 11:16:48;;;;;;;2.17;1.02;;;;;;;18.85;35.43;101246.06;4989882;28;20122;-43
2022/03/09 11:19:14;;;;;;;1.95;1.17;;;;;;;18.83;35.30;101246.25;4989614;28;20038;-42
2022/03/09 11:21:41;;;;;;;2.47;1.10;;;;;;;18.82;35.27;101243.78;4985591;28;20027;-42
2022/03/09 11:24:11;;;;;;;2.85;1.30;;;;;;;18.78;35.27;101245.97;4990664;28;20038;-44
2022/03/09 11:26:41;;;;;;;3.03;1.05;;;;;;;18.78;35.40;101245.13;4976273;28;20050;-45